Time;durP1;ratioP1;P1;durP2;ratioP2;P2;SDS_P1;SDS_P2;PMS_P1;PMS_P2;Temp;Humidity;BMP_temperature;BMP_pressure;BME280_temperature;BME280_humidity;BME280_pressure;Samples;Min_cycle;Max_cycle;Signal;HPM_P1;HPM_P2
2022/07/23 00:00:34;;;;;;;10.13;8.23;;;;;;;20.33;81.02;100690.72;5053032;28;20111;-72
2022/07/23 00:03:37;;;;;;;10.90;7.32;;;;;;;20.43;80.92;100685.41;5053705;28;20047;-72
2022/07/23 00:06:41;;;;;;;11.57;7.63;;;;;;;20.66;79.77;100676.19;5053992;28;20429;-72
2022/07/23 00:09:44;;;;;;;11.00;8.25;;;;;;;20.37;81.34;100686.78;5054537;28;20528;-72
2022/07/23 00:12:47;;;;;;;9.95;8.50;;;;;;;20.13;82.36;100684.56;5054799;28;20133;-72
2022/07/23 00:15:51;;;;;;;9.57;8.07;;;;;;;20.12;82.84;100690.81;5054260;28;20092;-72
2022/07/23 00:18:54;;;;;;;15.95;8.13;;;;;;;20.11;82.63;100685.66;5054063;28;20082;-72
2022/07/23 00:21:57;;;;;;;9.65;8.60;;;;;;;20.33;81.58;100688.06;5054561;28;20044;-72
2022/07/23 00:25:01;;;;;;;11.48;8.05;;;;;;;20.14;82.92;100691.53;5053770;28;20087;-72
2022/07/23 00:28:05;;;;;;;9.27;8.38;;;;;;;20.23;82.25;100689.88;5054613;28;20516;-72
2022/07/23 00:31:08;;;;;;;10.00;7.45;;;;;;;20.07;82.27;100695.72;5052827;28;20501;-72
2022/07/23 00:34:12;;;;;;;8.10;7.30;;;;;;;20.32;80.70;100691.66;5052982;28;20159;-72
2022/07/23 00:37:15;;;;;;;8.48;7.50;;;;;;;20.29;81.76;100673.34;5054021;28;20052;-72
2022/07/23 00:40:19;;;;;;;9.35;8.40;;;;;;;20.35;81.21;100664.00;5053846;28;20052;-72
2022/07/23 00:43:23;;;;;;;9.85;7.82;;;;;;;20.28;81.70;100661.06;5053305;28;20162;-72
2022/07/23 00:46:26;;;;;;;8.90;7.97;;;;;;;20.32;81.47;100666.94;5053348;28;20648;-72
2022/07/23 00:49:30;;;;;;;11.95;7.97;;;;;;;20.35;81.03;100669.31;5052389;28;20598;-72
2022/07/23 00:52:35;;;;;;;9.82;8.00;;;;;;;20.07;82.22;100684.25;5053815;28;20044;-72
2022/07/23 00:55:39;;;;;;;8.52;6.80;;;;;;;19.94;83.08;100684.50;5051823;28;20072;-72
2022/07/23 00:58:42;;;;;;;9.90;8.07;;;;;;;19.92;83.00;100686.47;5052353;28;20053;-72
2022/07/23 01:01:48;;;;;;;9.18;8.07;;;;;;;19.67;84.46;100680.66;5052827;28;20056;-72
2022/07/23 01:04:52;;;;;;;9.05;8.13;;;;;;;19.89;83.09;100687.56;5051928;28;20056;-72
2022/07/23 01:07:55;;;;;;;8.98;8.07;;;;;;;19.94;83.16;100680.06;5052558;28;20563;-72
2022/07/23 01:10:58;;;;;;;9.63;7.85;;;;;;;20.07;82.46;100673.63;5052540;28;20043;-72
2022/07/23 01:14:28;;;;;;;8.85;7.65;;;;;;;19.98;82.82;100681.44;5052407;28;20047;-72
2022/07/23 01:17:31;;;;;;;8.90;8.00;;;;;;;19.65;83.98;100684.44;5051309;28;20048;-72
2022/07/23 01:20:35;;;;;;;8.55;7.05;;;;;;;19.91;83.12;100687.41;5050904;28;20071;-72
2022/07/23 01:23:39;;;;;;;10.40;8.13;;;;;;;19.83;83.56;100685.47;5052700;28;20101;-72
2022/07/23 01:26:46;;;;;;;11.18;8.80;;;;;;;19.65;84.37;100690.56;5062573;28;20195;-73
2022/07/23 01:29:49;;;;;;;10.15;8.68;;;;;;;19.66;84.50;100694.91;5050914;28;20091;-73
2022/07/23 01:32:56;;;;;;;10.27;9.13;;;;;;;19.79;83.86;100691.19;5062974;28;20479;-73
2022/07/23 01:36:00;;;;;;;8.80;7.25;;;;;;;19.82;84.07;100685.63;5050826;28;20056;-73
2022/07/23 01:39:05;;;;;;;7.78;6.93;;;;;;;20.10;82.49;100678.66;5063523;28;20516;-73
2022/07/23 01:42:09;;;;;;;9.57;8.57;;;;;;;20.14;82.19;100670.28;5050675;28;20182;-72
2022/07/23 01:45:13;;;;;;;11.57;8.43;;;;;;;19.94;83.23;100669.44;5052718;28;20047;-72
2022/07/23 01:48:20;;;;;;;8.45;7.63;;;;;;;19.80;84.03;100676.94;5050293;28;20048;-72
2022/07/23 01:51:59;;;;;;;9.65;7.65;;;;;;;19.68;84.29;100662.94;5051670;28;20052;-72
2022/07/23 01:55:02;;;;;;;;;;;;;;;19.64;85.16;100653.59;5062005;28;20122;-72
2022/07/23 01:58:06;;;;;;;10.65;7.80;;;;;;;19.74;84.64;100660.56;5051092;28;19920;-72
2022/07/23 02:01:09;;;;;;;8.93;7.93;;;;;;;19.87;83.59;100659.50;5061554;28;20040;-73
2022/07/23 02:04:13;;;;;;;9.60;8.45;;;;;;;19.76;84.29;100654.31;5049761;28;20480;-72
2022/07/23 02:07:16;;;;;;;9.45;8.32;;;;;;;19.59;84.95;100647.78;5051737;28;20091;-72
2022/07/23 02:10:20;;;;;;;9.30;8.38;;;;;;;19.44;85.41;100634.09;5052015;28;20048;-72
2022/07/23 02:13:24;;;;;;;9.68;8.68;;;;;;;19.45;85.20;100635.75;5050591;28;20059;-72
2022/07/23 02:16:27;;;;;;;9.80;7.80;;;;;;;19.37;85.24;100659.44;5052455;28;20044;-73
2022/07/23 02:19:31;;;;;;;8.63;7.70;;;;;;;19.39;84.16;100654.84;5051222;28;20052;-73
2022/07/23 02:22:35;;;;;;;9.43;8.38;;;;;;;19.67;83.00;100656.78;5051308;28;20140;-72
2022/07/23 02:25:38;;;;;;;8.93;8.02;;;;;;;19.62;83.49;100659.00;5050794;28;20048;-72
2022/07/23 02:28:41;;;;;;;9.05;8.15;;;;;;;19.71;83.19;100654.72;5052144;28;20453;-72
2022/07/23 02:31:45;;;;;;;9.45;8.48;;;;;;;19.79;82.96;100662.00;5051020;28;20132;-72
2022/07/23 02:34:49;;;;;;;9.77;8.60;;;;;;;19.48;83.13;100664.66;5050486;28;20632;-72
2022/07/23 02:37:53;;;;;;;9.27;8.32;;;;;;;19.39;84.02;100665.47;5050054;28;20056;-72
2022/07/23 02:40:58;;;;;;;10.73;8.68;;;;;;;19.27;84.91;100678.84;5050157;28;20040;-72
2022/07/23 02:44:01;;;;;;;10.90;9.23;;;;;;;19.21;84.65;100682.00;5049801;28;20060;-72
2022/07/23 02:47:05;;;;;;;9.38;8.52;;;;;;;19.21;84.76;100681.16;5050376;28;20506;-72
2022/07/23 02:50:11;;;;;;;9.75;8.30;;;;;;;19.26;84.82;100689.56;5050209;28;20121;-72
2022/07/23 02:53:15;;;;;;;9.95;7.75;;;;;;;19.06;85.32;100691.28;5051141;28;20150;-72
2022/07/23 02:56:19;;;;;;;11.95;9.27;;;;;;;19.09;85.19;100685.69;5049887;28;20043;-72
2022/07/23 02:59:23;;;;;;;9.57;8.57;;;;;;;19.10;84.60;100679.41;5051772;28;20151;-72
2022/07/23 03:02:26;;;;;;;11.07;8.15;;;;;;;19.07;85.32;100674.38;5050123;28;20095;-72
2022/07/23 03:05:29;;;;;;;10.60;8.63;;;;;;;19.02;85.99;100666.00;5049526;28;20505;-72
2022/07/23 03:08:32;;;;;;;10.88;9.77;;;;;;;18.93;86.43;100678.22;5050612;28;20167;-72
2022/07/23 03:11:36;;;;;;;12.40;8.93;;;;;;;18.97;86.04;100676.16;5051058;28;20052;-72
2022/07/23 03:14:40;;;;;;;10.32;8.15;;;;;;;19.22;84.94;100694.28;5050643;28;20422;-72
2022/07/23 03:17:44;;;;;;;9.70;7.95;;;;;;;18.94;85.60;100702.91;5050210;28;20476;-72
2022/07/23 03:20:48;;;;;;;11.30;7.97;;;;;;;19.25;84.00;100699.31;5049630;28;20595;-72
2022/07/23 03:23:51;;;;;;;11.32;9.02;;;;;;;19.33;83.61;100700.47;5050154;28;20055;-72
2022/07/23 03:26:55;;;;;;;12.48;8.98;;;;;;;19.28;83.63;100704.34;5062058;28;20103;-72
2022/07/23 03:29:59;;;;;;;9.38;8.50;;;;;;;19.05;85.04;100708.97;5050134;28;20048;-72
2022/07/23 03:33:02;;;;;;;9.18;8.02;;;;;;;19.07;84.72;100708.84;5050085;28;20056;-73
2022/07/23 03:36:06;;;;;;;10.10;8.05;;;;;;;19.11;83.90;100701.47;5051172;28;20414;-73
2022/07/23 03:39:13;;;;;;;11.98;9.02;;;;;;;18.96;84.39;100704.47;5044082;28;20103;-73
2022/07/23 03:42:17;;;;;;;10.27;9.23;;;;;;;19.05;83.70;100703.69;5047086;28;20114;-72
2022/07/23 03:45:23;;;;;;;16.27;10.30;;;;;;;18.98;83.17;100706.97;5047289;28;20106;-72
2022/07/23 03:48:26;;;;;;;10.93;9.30;;;;;;;18.66;83.97;100699.88;5047616;28;20413;-72
2022/07/23 03:51:29;;;;;;;12.20;9.32;;;;;;;18.56;83.96;100704.28;5047927;28;20044;-73
2022/07/23 03:54:33;;;;;;;14.07;9.35;;;;;;;18.57;84.06;100698.03;5047468;28;20067;-73
2022/07/23 03:57:39;;;;;;;10.25;8.73;;;;;;;18.75;82.47;100701.78;5046815;28;20044;-72
2022/07/23 04:00:42;;;;;;;10.38;9.38;;;;;;;18.74;82.23;100702.78;5048214;28;20044;-73
2022/07/23 04:03:46;;;;;;;11.95;9.18;;;;;;;18.80;81.63;100709.38;5047076;28;20102;-67
2022/07/23 04:06:49;;;;;;;13.23;9.23;;;;;;;18.40;83.92;100710.00;5048663;28;20098;-67
2022/07/23 04:09:53;;;;;;;13.25;9.98;;;;;;;18.42;83.58;100720.47;5049922;28;20063;-67
2022/07/23 04:12:56;;;;;;;9.88;8.90;;;;;;;18.46;83.44;100733.31;5050211;28;20089;-67
2022/07/23 04:15:59;;;;;;;9.68;8.65;;;;;;;18.64;81.70;100730.13;5051169;28;20167;-67
2022/07/23 04:19:04;;;;;;;11.88;9.55;;;;;;;18.70;81.21;100727.81;5050845;28;20131;-68
2022/07/23 04:22:12;;;;;;;14.63;9.40;;;;;;;18.62;81.80;100722.28;5050943;28;20528;-67
2022/07/23 04:25:17;;;;;;;10.63;9.52;;;;;;;18.18;83.71;100736.53;5049926;28;20039;-67
2022/07/23 04:28:20;;;;;;;13.80;10.20;;;;;;;18.29;83.47;100740.00;5050227;28;20082;-67
2022/07/23 04:31:24;;;;;;;10.82;9.02;;;;;;;18.45;82.91;100738.75;5051409;28;20040;-67
2022/07/23 04:34:27;;;;;;;11.88;8.65;;;;;;;18.59;82.04;100743.75;5049990;28;20043;-66
2022/07/23 04:37:31;;;;;;;13.18;9.77;;;;;;;18.37;82.72;100744.66;5050628;28;20125;-67
2022/07/23 04:40:34;;;;;;;12.35;9.45;;;;;;;18.14;84.31;100743.88;5030662;28;20415;-67
2022/07/23 04:43:38;;;;;;;13.60;9.50;;;;;;;18.20;84.35;100743.38;5030161;28;20048;-67
2022/07/23 04:46:41;;;;;;;11.55;9.25;;;;;;;18.42;83.12;100739.00;5030928;28;20094;-67
2022/07/23 04:49:45;;;;;;;10.52;9.35;;;;;;;18.64;81.65;100740.72;5029776;28;20083;-67
2022/07/23 04:52:49;;;;;;;10.70;8.80;;;;;;;18.76;81.22;100755.59;5033521;28;20044;-67
2022/07/23 04:55:52;;;;;;;13.65;8.57;;;;;;;18.84;80.82;100747.03;5049976;28;20075;-68
2022/07/23 04:58:55;;;;;;;11.75;8.98;;;;;;;18.71;80.88;100747.19;5050219;28;20039;-67
2022/07/23 05:01:58;;;;;;;10.63;8.25;;;;;;;18.78;80.45;100749.22;5049735;28;20696;-67
2022/07/23 05:05:04;;;;;;;16.10;9.45;;;;;;;18.65;80.64;100753.81;5049556;28;20044;-68
2022/07/23 05:08:09;;;;;;;11.05;8.52;;;;;;;18.65;81.03;100758.28;5048909;28;20044;-69
2022/07/23 05:11:15;;;;;;;10.32;9.15;;;;;;;18.58;81.43;100763.25;5049374;28;20179;-68
2022/07/23 05:14:18;;;;;;;9.95;8.88;;;;;;;18.55;81.79;100759.03;5049426;28;20102;-68
2022/07/23 05:17:22;;;;;;;10.00;8.25;;;;;;;18.65;81.52;100753.81;5049619;28;20056;-67
2022/07/23 05:20:26;;;;;;;9.68;8.40;;;;;;;18.66;81.76;100755.50;5050113;28;20448;-67
2022/07/23 05:23:29;;;;;;;10.15;9.05;;;;;;;18.63;82.48;100761.06;5049188;28;20560;-67
2022/07/23 05:26:33;;;;;;;12.75;9.23;;;;;;;18.40;83.61;100762.09;5048785;28;20525;-67
2022/07/23 05:29:36;;;;;;;14.00;8.93;;;;;;;18.47;83.94;100765.91;5049558;28;20116;-67
2022/07/23 05:32:40;;;;;;;12.45;9.15;;;;;;;18.62;83.41;100758.53;5048806;28;20128;-67
2022/07/23 05:35:49;;;;;;;13.48;9.40;;;;;;;18.84;82.22;100752.34;5048573;28;20136;-67
2022/07/23 05:38:59;;;;;;;17.05;9.55;;;;;;;18.93;81.89;100762.19;5047686;28;20036;-67
2022/07/23 05:42:06;;;;;;;11.85;9.07;;;;;;;19.00;81.68;100758.88;5045848;28;20056;-67
2022/07/23 05:45:09;;;;;;;12.48;9.32;;;;;;;19.01;81.08;100770.31;5042572;28;20044;-67
2022/07/23 05:48:17;;;;;;;9.68;8.68;;;;;;;19.15;81.11;100782.41;5046818;28;20127;-67
2022/07/23 05:51:34;;;;;;;9.95;8.52;;;;;;;19.19;81.52;100779.38;5048004;28;20043;-68
2022/07/23 05:54:38;;;;;;;12.50;8.95;;;;;;;19.31;81.34;100784.63;5042790;28;20124;-68
2022/07/23 05:57:41;;;;;;;13.67;8.30;;;;;;;19.39;80.64;100779.47;4680842;28;10001122;-68
2022/07/23 06:00:45;;;;;;;10.13;9.10;;;;;;;19.55;79.95;100766.59;5058402;28;20157;-67
2022/07/23 06:03:49;;;;;;;9.57;8.30;;;;;;;19.60;79.57;100777.66;5047941;28;20055;-67
2022/07/23 06:06:55;;;;;;;11.77;9.00;;;;;;;19.71;79.20;100779.41;5034669;28;20040;-68
2022/07/23 06:09:59;;;;;;;10.27;8.88;;;;;;;19.67;79.71;100781.47;5046584;28;20068;-68
2022/07/23 06:13:02;;;;;;;11.55;8.75;;;;;;;19.71;80.76;100788.19;5036805;28;20088;-69
2022/07/23 06:16:06;;;;;;;9.85;7.07;;;;;;;19.64;79.21;100794.16;5029105;28;20049;-67
2022/07/23 06:19:10;;;;;;;8.98;7.30;;;;;;;19.38;79.79;100799.84;5035638;28;20076;-68
2022/07/23 06:22:13;;;;;;;12.38;8.85;;;;;;;19.48;79.09;100797.25;5048511;28;20691;-67
2022/07/23 06:25:16;;;;;;;9.43;8.05;;;;;;;19.54;78.59;100799.41;5048923;28;20052;-68
2022/07/23 06:28:21;;;;;;;9.05;7.07;;;;;;;19.68;78.82;100783.16;5030100;28;20128;-68
2022/07/23 06:31:24;;;;;;;9.63;7.25;;;;;;;19.76;78.13;100792.28;5039277;28;20608;-68
2022/07/23 06:34:27;;;;;;;8.90;7.68;;;;;;;19.90;77.60;100789.25;5049326;28;20116;-68
2022/07/23 06:37:33;;;;;;;7.95;6.57;;;;;;;19.82;77.87;100792.59;5028768;28;20157;-68
2022/07/23 06:40:38;;;;;;;10.38;7.03;;;;;;;19.67;77.15;100802.69;5027781;28;20048;-68
2022/07/23 06:43:48;;;;;;;11.98;6.45;;;;;;;20.00;75.53;100806.03;5027724;28;20415;-68
2022/07/23 06:46:58;;;;;;;8.93;6.50;;;;;;;20.01;72.28;100805.09;5027824;28;20068;-68
2022/07/23 06:50:04;;;;;;;8.18;6.35;;;;;;;20.16;71.87;100806.38;5048221;28;20071;-67
2022/07/23 06:53:07;;;;;;;8.13;5.78;;;;;;;20.03;70.58;100797.81;5048994;28;20167;-66
2022/07/23 06:56:10;;;;;;;11.07;6.35;;;;;;;20.12;71.65;100810.28;5049130;28;20132;-68
2022/07/23 06:59:13;;;;;;;8.10;5.75;;;;;;;20.00;69.18;100803.38;5059366;28;20044;-68
2022/07/23 07:40:52;;;;;;;6.78;4.72;;;;;;;20.61;65.22;100845.81;5128862;27;20394;-71
2022/07/23 07:43:56;;;;;;;5.50;3.97;;;;;;;20.75;63.78;100855.19;5127652;28;20086;-71
2022/07/23 07:46:59;;;;;;;5.45;4.05;;;;;;;20.89;61.28;100851.28;5123748;28;20411;-71
2022/07/23 07:50:05;;;;;;;5.80;4.00;;;;;;;21.09;60.54;100842.34;5128644;28;20131;-72
2022/07/23 07:53:08;;;;;;;6.07;4.25;;;;;;;21.18;60.03;100853.09;5130101;28;20051;-72
2022/07/23 07:56:11;;;;;;;5.32;3.92;;;;;;;21.32;62.87;100853.53;5119869;28;20085;-72
2022/07/23 07:59:15;;;;;;;7.28;3.85;;;;;;;21.38;61.57;100862.78;5112751;28;20553;-72
2022/07/23 08:02:18;;;;;;;4.88;3.40;;;;;;;21.18;61.29;100861.91;5109155;28;20047;-73
2022/07/23 08:05:25;;;;;;;7.55;4.00;;;;;;;21.06;61.61;100865.72;5109382;28;20051;-72
2022/07/23 08:08:28;;;;;;;11.88;4.90;;;;;;;20.95;61.33;100861.34;5113621;28;20091;-74
2022/07/23 08:11:31;;;;;;;5.85;4.40;;;;;;;21.05;62.21;100861.38;5088893;28;20058;-72
2022/07/23 08:14:35;;;;;;;6.22;4.25;;;;;;;21.24;60.59;100856.03;5118509;28;20105;-72
2022/07/23 08:17:40;;;;;;;5.28;4.10;;;;;;;21.44;61.08;100856.03;5118806;28;20131;-72
2022/07/23 08:20:43;;;;;;;4.50;3.83;;;;;;;21.63;61.16;100849.84;5104288;28;20297;-72
2022/07/23 08:23:46;;;;;;;7.03;4.93;;;;;;;21.72;60.95;100851.66;5113150;28;20038;-72
2022/07/23 08:26:50;;;;;;;7.75;4.25;;;;;;;21.87;61.71;100850.19;5123972;28;20051;-72
2022/07/23 08:29:53;;;;;;;7.20;4.90;;;;;;;21.77;59.93;100852.91;5121275;28;20052;-72
2022/07/23 08:33:16;;;;;;;7.25;4.78;;;;;;;21.85;60.03;100859.31;5087774;28;20074;-71
2022/07/23 08:36:20;;;;;;;6.47;4.65;;;;;;;21.72;60.37;100856.97;5087885;28;20058;-70
2022/07/23 08:42:36;;;;;;;6.00;5.30;;;;;;;22.08;60.00;100857.13;5009141;28;20038;-77
2022/07/23 08:45:45;;;;;;;7.78;4.82;;;;;;;22.27;59.52;100857.91;5029874;28;20049;-76
2022/07/23 08:48:49;;;;;;;5.00;4.38;;;;;;;22.44;59.44;100858.94;5031411;28;20141;-77
2022/07/23 08:51:59;;;;;;;6.28;4.88;;;;;;;22.52;56.64;100867.00;5027736;28;20534;-77
2022/07/23 08:55:06;;;;;;;5.47;4.43;;;;;;;22.45;57.62;100857.94;5030598;28;20052;-77
2022/07/23 08:58:44;;;;;;;5.78;4.57;;;;;;;22.70;57.47;100855.56;5017451;28;20040;-78
2022/07/23 09:02:15;;;;;;;5.47;4.68;;;;;;;22.90;56.92;100867.75;5035247;28;20072;-77
2022/07/23 09:05:39;;;;;;;6.05;4.32;;;;;;;22.88;55.82;100875.06;5035154;28;20099;-77
2022/07/23 09:08:53;;;;;;;8.98;5.05;;;;;;;22.97;55.44;100878.66;5034647;28;20086;-77
2022/07/23 09:22:56;;;;;;;5.35;4.35;;;;;;;22.69;58.57;100862.72;5145765;27;20408;-70
2022/07/23 09:26:00;;;;;;;8.75;5.30;;;;;;;22.71;56.98;100866.06;5149205;27;20042;-70
2022/07/23 09:29:16;;;;;;;7.50;4.57;;;;;;;22.46;56.61;100869.44;5149298;27;20068;-70
2022/07/23 09:32:19;;;;;;;5.57;4.63;;;;;;;22.77;55.70;100867.28;5150623;27;20149;-71
2022/07/23 09:35:43;;;;;;;7.65;5.38;;;;;;;22.89;55.58;100863.41;5150843;27;20079;-71
2022/07/23 09:38:50;;;;;;;8.68;5.03;;;;;;;22.90;55.45;100857.09;5140427;27;20134;-72
2022/07/23 09:41:57;;;;;;;6.60;5.10;;;;;;;23.31;56.00;100859.31;5130651;27;20676;-72
2022/07/23 09:45:03;;;;;;;6.43;5.13;;;;;;;23.54;54.67;100862.31;5129732;27;20082;-73
2022/07/23 09:48:12;;;;;;;8.00;5.15;;;;;;;23.60;54.21;100857.19;5129726;27;20042;-73
2022/07/23 09:51:19;;;;;;;6.35;4.38;;;;;;;23.42;53.87;100865.25;5129784;27;20087;-70
2022/07/23 09:54:35;;;;;;;6.18;5.35;;;;;;;23.43;54.34;100864.25;5129692;27;20042;-72
2022/07/23 09:57:41;;;;;;;7.15;4.93;;;;;;;23.17;54.18;100866.03;5129647;27;20092;-72
2022/07/23 10:00:49;;;;;;;6.45;4.95;;;;;;;23.07;54.67;100878.59;5121580;27;20127;-73
2022/07/23 10:03:53;;;;;;;6.80;4.78;;;;;;;23.15;54.04;100870.69;5126052;27;20051;-72
2022/07/23 10:07:26;;;;;;;8.52;5.97;;;;;;;23.32;53.92;100866.31;5095014;27;21205;-72
2022/07/23 10:10:36;;;;;;;12.43;5.28;;;;;;;23.50;54.04;100866.28;5127172;27;20131;-72
2022/07/23 10:14:00;;;;;;;;;;;;;;;23.32;53.96;100861.81;5116351;27;20065;-71
2022/07/23 10:17:33;;;;;;;7.05;4.88;;;;;;;23.51;53.51;100868.78;5129317;27;19960;-72
2022/07/23 10:20:38;;;;;;;7.18;5.00;;;;;;;23.18;52.96;100865.03;5125186;27;20412;-72
2022/07/23 10:23:51;;;;;;;8.20;5.05;;;;;;;23.35;53.43;100855.31;5112507;28;20588;-70
2022/07/23 10:27:16;;;;;;;6.22;4.60;;;;;;;23.56;53.67;100868.34;5110865;28;20100;-71
2022/07/23 10:30:25;;;;;;;8.20;5.28;;;;;;;23.85;53.55;100858.19;5090255;28;20073;-72
2022/07/23 10:34:08;;;;;;;8.32;5.13;;;;;;;24.01;52.91;100853.94;5090989;28;20063;-70
2022/07/23 10:37:24;;;;;;;9.50;5.43;;;;;;;24.25;51.10;100839.84;5090606;28;20129;-73
2022/07/23 10:40:28;;;;;;;5.07;4.40;;;;;;;24.34;50.04;100850.38;5091699;28;20093;-74
2022/07/23 10:43:32;;;;;;;6.85;4.45;;;;;;;24.13;48.67;100844.66;5107452;28;20049;-74
2022/07/23 10:47:08;;;;;;;5.35;3.90;;;;;;;24.24;47.60;100841.69;5111076;28;20051;-75
2022/07/23 10:50:34;;;;;;;5.43;4.05;;;;;;;24.47;48.99;100846.47;5104297;28;20070;-71
2022/07/23 10:53:55;;;;;;;6.72;5.00;;;;;;;24.18;48.26;100842.31;5099137;28;20051;-77
2022/07/23 10:56:58;;;;;;;44.35;11.55;;;;;;;24.49;47.49;100839.13;5100971;28;20093;-73
2022/07/23 11:00:14;;;;;;;7.85;3.83;;;;;;;24.57;48.87;100826.63;5100350;28;20065;-72
2022/07/23 11:03:32;;;;;;;8.70;4.70;;;;;;;24.61;46.99;100832.47;5098177;28;20047;-74
2022/07/23 11:06:48;;;;;;;10.63;4.75;;;;;;;24.59;46.88;100810.41;5095774;28;20039;-72
2022/07/23 11:09:53;;;;;;;5.18;4.50;;;;;;;24.88;47.25;100817.13;5101086;28;20047;-74
2022/07/23 11:13:22;;;;;;;9.60;4.78;;;;;;;24.89;46.15;100818.78;5100620;28;20054;-65
2022/07/23 11:16:25;;;;;;;6.20;4.13;;;;;;;24.72;45.82;100813.44;5098508;28;20065;-70
2022/07/23 11:19:29;;;;;;;7.68;3.95;;;;;;;24.86;45.96;100811.13;5100613;28;20581;-71
2022/07/23 11:22:46;;;;;;;6.32;4.70;;;;;;;25.01;46.06;100814.78;5100061;28;20078;-73
2022/07/23 11:25:49;;;;;;;7.13;4.40;;;;;;;24.93;45.55;100818.31;5102147;28;20557;-72
2022/07/23 11:28:52;;;;;;;4.47;3.30;;;;;;;25.06;44.92;100820.47;5097459;28;20043;-73
2022/07/23 11:32:19;;;;;;;5.43;3.83;;;;;;;24.94;43.80;100817.28;5098382;28;20082;-71
2022/07/23 11:35:27;;;;;;;5.20;4.40;;;;;;;25.05;44.60;100808.94;5097751;28;20062;-70
2022/07/23 11:38:32;;;;;;;4.93;3.50;;;;;;;25.09;43.81;100812.13;5099913;28;20412;-65
2022/07/23 11:41:45;;;;;;;7.15;4.22;;;;;;;25.16;45.47;100809.63;5098217;28;20043;-71
2022/07/23 11:44:49;;;;;;;6.43;4.10;;;;;;;25.33;42.68;100800.56;5100157;28;20123;-72
2022/07/23 11:47:53;;;;;;;5.10;2.72;;;;;;;25.31;43.63;100801.78;5099344;28;20092;-72
2022/07/23 11:50:57;;;;;;;4.72;3.28;;;;;;;25.56;43.27;100800.72;5098089;28;20100;-72
2022/07/23 11:54:06;;;;;;;6.07;3.13;;;;;;;25.68;41.53;100799.31;5099137;28;20070;-73
2022/07/23 11:57:10;;;;;;;6.90;3.38;;;;;;;25.71;42.97;100790.94;5100355;28;20054;-71
2022/07/23 12:00:19;;;;;;;4.15;2.95;;;;;;;25.84;42.02;100798.47;5088601;28;20082;-73
2022/07/23 12:03:22;;;;;;;13.82;3.70;;;;;;;25.80;42.63;100791.75;5099291;28;20082;-67
2022/07/23 12:06:25;;;;;;;4.72;2.80;;;;;;;25.40;40.85;100798.06;5098934;28;20073;-71
2022/07/23 12:09:29;;;;;;;6.47;3.00;;;;;;;25.26;40.68;100794.22;5098573;28;20057;-71
2022/07/23 12:12:41;;;;;;;4.35;2.70;;;;;;;25.27;41.25;100795.91;5097138;28;20102;-72
2022/07/23 12:15:48;;;;;;;4.95;3.10;;;;;;;25.48;41.08;100781.97;5100244;28;20074;-71
2022/07/23 12:18:52;;;;;;;3.67;2.78;;;;;;;25.51;42.70;100789.66;5099342;27;20131;-71
2022/07/23 12:21:55;;;;;;;5.32;2.80;;;;;;;25.22;42.09;100784.88;5096942;27;20511;-71
2022/07/23 12:25:02;;;;;;;3.67;3.28;;;;;;;25.41;42.43;100783.69;5089101;28;20058;-70
2022/07/23 12:28:12;;;;;;;3.58;2.50;;;;;;;25.69;40.45;100790.31;5089082;28;20140;-72
2022/07/23 12:31:25;;;;;;;4.18;3.00;;;;;;;25.49;40.41;100783.66;5089144;28;20132;-71
2022/07/23 12:34:29;;;;;;;6.22;3.13;;;;;;;25.52;41.19;100789.50;5088731;28;20150;-72
2022/07/23 12:37:35;;;;;;;6.38;3.17;;;;;;;25.83;39.07;100783.41;5102017;28;20085;-72
2022/07/23 12:40:49;;;;;;;5.65;2.92;;;;;;;26.15;38.99;100776.22;5109835;28;20070;-75
2022/07/23 12:43:52;;;;;;;5.93;2.80;;;;;;;26.52;38.92;100780.91;5109718;28;20442;-74
2022/07/23 12:46:55;;;;;;;5.97;2.88;;;;;;;26.70;38.19;100790.50;5109553;28;20078;-72
2022/07/23 12:49:59;;;;;;;6.22;3.17;;;;;;;26.51;38.03;100784.59;5108420;28;20817;-71
2022/07/23 12:53:11;;;;;;;5.20;2.85;;;;;;;26.67;38.85;100787.19;5087833;28;20047;-72
2022/07/23 12:56:27;;;;;;;5.03;3.00;;;;;;;26.47;38.21;100796.66;5089113;28;20744;-72
2022/07/23 12:59:31;;;;;;;8.38;3.10;;;;;;;26.80;39.21;100794.63;5089447;28;20047;-73
2022/07/23 13:02:47;;;;;;;5.38;3.03;;;;;;;27.39;36.24;100793.13;5089146;28;20121;-73
2022/07/23 13:05:51;;;;;;;4.40;3.08;;;;;;;27.74;37.87;100780.81;5098623;28;20089;-74
2022/07/23 13:08:55;;;;;;;5.32;3.38;;;;;;;28.17;36.74;100780.94;5109481;28;20054;-72
2022/07/23 13:11:59;;;;;;;5.22;3.00;;;;;;;28.51;36.06;100780.31;5108882;28;20050;-72
2022/07/23 13:15:03;;;;;;;3.60;2.67;;;;;;;28.21;36.80;100782.25;5108775;28;20042;-73
2022/07/23 13:30:35;;;;;;;7.13;3.17;;;;;;;28.31;35.54;100795.38;5045613;28;20376;-76
2022/07/23 13:33:38;;;;;;;4.93;2.72;;;;;;;28.83;36.20;100789.72;5045915;28;20048;-81
2022/07/23 13:36:43;;;;;;;6.00;2.97;;;;;;;27.79;36.21;100794.53;5044453;28;20041;-75
2022/07/23 13:39:46;;;;;;;5.90;3.00;;;;;;;27.17;38.42;100802.88;5041466;28;20032;-74
2022/07/23 13:42:49;;;;;;;7.88;3.17;;;;;;;28.35;35.04;100794.81;5044866;28;20052;-75
2022/07/23 13:45:53;;;;;;;4.57;3.22;;;;;;;27.31;39.17;100796.69;5044065;28;20512;-71
2022/07/23 13:48:56;;;;;;;5.38;2.83;;;;;;;26.76;37.78;100798.66;5041567;28;20045;-72
2022/07/23 13:52:05;;;;;;;4.07;2.95;;;;;;;28.20;35.15;100791.31;5042438;28;20551;-72
2022/07/23 13:55:12;;;;;;;4.53;3.22;;;;;;;28.58;36.01;100788.44;5042603;28;20048;-74
2022/07/23 13:58:17;;;;;;;4.03;2.40;;;;;;;28.63;35.33;100781.47;5041246;28;20044;-72
2022/07/23 14:01:20;;;;;;;6.75;3.05;;;;;;;28.52;35.08;100784.66;5042457;28;20071;-69
2022/07/23 14:04:24;;;;;;;6.60;3.40;;;;;;;28.81;34.23;100782.88;5042526;28;20609;-71
2022/07/23 14:07:27;;;;;;;5.25;2.97;;;;;;;30.12;32.55;100771.31;5042781;28;20085;-71
2022/07/23 14:10:31;;;;;;;4.70;3.10;;;;;;;31.58;30.26;100770.59;5043158;28;20056;-69
2022/07/23 14:13:34;;;;;;;3.80;2.97;;;;;;;33.14;27.19;100768.47;5041768;28;20055;-73
2022/07/23 14:16:38;;;;;;;4.50;2.92;;;;;;;33.62;26.02;100770.50;5041918;28;20048;-75
2022/07/23 14:19:41;;;;;;;4.32;3.20;;;;;;;34.78;25.09;100780.22;5041059;28;20507;-73
2022/07/23 14:26:21;;;;;;;13.07;3.38;;;;;;;38.82;20.02;100767.78;3283905;26;20132;-81
2022/07/23 14:29:28;;;;;;;6.07;2.60;;;;;;;35.56;22.69;100770.09;5064226;28;20036;-80
2022/07/23 14:32:32;;;;;;;3.80;2.38;;;;;;;36.11;22.48;100761.41;5045440;28;20096;-78
2022/07/23 14:35:39;;;;;;;5.53;3.03;;;;;;;34.24;23.72;100769.31;5043267;28;20040;-79
2022/07/23 14:38:42;;;;;;;5.28;2.55;;;;;;;34.80;23.02;100769.91;5045432;28;20075;-78
2022/07/23 14:41:46;;;;;;;3.67;2.33;;;;;;;32.88;25.27;100773.03;5046179;28;20052;-78
2022/07/23 14:44:49;;;;;;;4.00;2.17;;;;;;;33.73;24.42;100772.47;5046504;28;20047;-84
2022/07/23 14:47:52;;;;;;;5.10;2.60;;;;;;;36.41;21.00;100761.16;5045919;28;20463;-79
2022/07/23 14:50:55;;;;;;;3.58;2.88;;;;;;;35.98;21.70;100767.13;5046306;28;20538;-78
2022/07/23 14:53:59;;;;;;;6.20;2.53;;;;;;;35.61;22.15;100767.44;5045145;28;20574;-79
2022/07/23 14:57:03;;;;;;;4.78;2.50;;;;;;;37.39;21.93;100758.88;5045853;28;20071;-80
2022/07/23 15:00:09;;;;;;;6.60;2.70;;;;;;;36.19;21.43;100773.81;5045458;28;20126;-80
2022/07/23 15:03:12;;;;;;;3.78;2.58;;;;;;;36.63;21.33;100765.88;5045258;28;20084;-80
2022/07/23 15:06:17;;;;;;;3.92;2.80;;;;;;;37.04;22.31;100767.38;5045398;28;20079;-81
2022/07/23 15:09:25;;;;;;;3.92;2.15;;;;;;;37.17;20.50;100763.47;5045271;28;20106;-80
2022/07/23 15:12:29;;;;;;;4.88;2.70;;;;;;;36.94;20.76;100754.38;5043704;28;20518;-79
2022/07/23 15:15:32;;;;;;;5.47;2.60;;;;;;;39.29;18.74;100754.22;5045304;28;20049;-79
2022/07/23 15:18:36;;;;;;;3.58;2.70;;;;;;;35.82;22.22;100753.19;5045502;28;20503;-78
2022/07/23 15:21:40;;;;;;;5.72;2.60;;;;;;;36.78;21.28;100753.31;5044710;28;20563;-79
2022/07/23 15:24:44;;;;;;;5.15;2.50;;;;;;;36.29;21.16;100758.47;5044695;28;20170;-79
2022/07/23 15:27:47;;;;;;;3.90;2.75;;;;;;;34.52;23.73;100754.25;5044445;28;20052;-78
2022/07/23 15:30:52;;;;;;;3.90;2.50;;;;;;;35.59;22.61;100756.00;5044278;28;20040;-77
2022/07/23 15:33:55;;;;;;;4.07;2.70;;;;;;;34.37;24.72;100764.75;5044626;28;20098;-79